createdAt,value
2023-01-01T00:00:28.901Z,76.94
2023-01-01T00:05:35.183Z,76.40
2023-01-01T00:10:43.628Z,76.64
2023-01-01T00:15:52.561Z,77.14
2023-01-01T00:21:05.406Z,77.11
2023-01-01T00:26:16.005Z,77.39
2023-01-01T00:31:23.850Z,77.73
2023-01-01T00:36:30.612Z,77.70
2023-01-01T00:41:39.109Z,77.30
2023-01-01T00:46:44.068Z,77.17
2023-01-01T00:51:51.293Z,76.71
2023-01-01T00:56:59.422Z,76.71
2023-01-01T01:02:05.405Z,76.39
2023-01-01T01:07:10.586Z,76.54
2023-01-01T01:12:19.231Z,76.14
2023-01-01T01:17:24.196Z,75.50
2023-01-01T01:22:29.761Z,75.92
2023-01-01T01:27:38.837Z,74.90
2023-01-01T01:32:43.830Z,75.04
2023-01-01T01:37:51.108Z,74.99
2023-01-01T01:42:58.890Z,74.15
2023-01-01T01:48:04.695Z,74.42
2023-01-01T01:53:12.162Z,74.58
2023-01-01T01:58:20.400Z,74.63
2023-01-01T02:03:30.078Z,75.36
2023-01-01T02:08:36.587Z,74.87
2023-01-01T02:13:46.369Z,74.36
2023-01-01T02:18:57.173Z,74.41
2023-01-01T02:24:35.815Z,74.09
2023-01-01T02:29:51.572Z,73.90
2023-01-01T02:35:23.518Z,73.57
2023-01-01T02:40:31.089Z,73.64
2023-01-01T02:45:42.744Z,73.51
2023-01-01T02:50:48.254Z,73.71
2023-01-01T02:56:03.391Z,73.34
2023-01-01T03:01:22.370Z,73.15
2023-01-01T03:06:37.220Z,72.57
2023-01-01T03:11:50.393Z,72.75
2023-01-01T03:17:03.980Z,72.39
2023-01-01T03:22:12.866Z,72.07
2023-01-01T03:27:20.982Z,71.10
2023-01-01T03:32:47.804Z,71.28
2023-01-01T03:37:54.913Z,71.63
2023-01-01T03:43:05.990Z,71.02
2023-01-01T03:48:16.458Z,70.63
2023-01-01T03:53:31.502Z,70.91
2023-01-01T03:58:43.785Z,70.67
2023-01-01T04:03:52.416Z,69.48
2023-01-01T04:09:00.420Z,69.53
2023-01-01T04:14:05.497Z,69.12
2023-01-01T04:19:15.624Z,68.96
2023-01-01T04:24:21.876Z,69.23
2023-01-01T04:29:27.207Z,68.44
2023-01-01T04:34:35.188Z,68.75
2023-01-01T04:39:40.284Z,68.34
2023-01-01T04:44:45.258Z,68.26
2023-01-01T04:49:52.868Z,68.30
2023-01-01T04:54:57.961Z,67.87
2023-01-01T05:00:03.021Z,68.33
2023-01-01T05:05:13.758Z,68.17
2023-01-01T05:10:18.908Z,68.14
2023-01-01T05:15:23.962Z,67.91
2023-01-01T05:20:32.485Z,67.67
2023-01-01T05:25:37.455Z,67.26
2023-01-01T05:30:43.037Z,67.25
2023-01-01T05:35:56.379Z,66.92
2023-01-01T05:41:04.095Z,67.15
2023-01-01T05:46:11.681Z,66.98
2023-01-01T05:51:21.339Z,67.14
2023-01-01T05:56:26.612Z,66.69
2023-01-01T06:01:32.976Z,67.17
2023-01-01T06:06:42.384Z,67.51
2023-01-01T06:11:47.375Z,67.40
2023-01-01T06:16:52.360Z,67.59
2023-01-01T06:22:00.169Z,67.64
2023-01-01T06:27:05.125Z,68.25
2023-01-01T06:32:10.141Z,68.54
2023-01-01T06:37:17.723Z,69.00
2023-01-01T06:42:22.730Z,69.30
2023-01-01T06:47:27.805Z,69.40
2023-01-01T06:52:35.432Z,70.14
2023-01-01T06:57:40.342Z,70.50
2023-01-01T07:02:45.595Z,71.26
2023-01-01T07:07:53.470Z,71.47
2023-01-01T07:12:58.673Z,71.69
2023-01-01T07:18:03.794Z,72.37
2023-01-01T07:23:16.403Z,72.81
2023-01-01T07:28:21.930Z,73.01
2023-01-01T07:33:29.648Z,73.23
2023-01-01T07:38:37.715Z,73.39
2023-01-01T07:43:42.715Z,73.73
2023-01-01T07:48:49.933Z,73.96
2023-01-01T07:54:03.954Z,73.95
2023-01-01T07:59:14.368Z,73.85
2023-01-01T08:04:22.071Z,74.30
2023-01-01T08:09:30.945Z,74.72
2023-01-01T08:14:36.309Z,73.81
2023-01-01T08:19:42.770Z,73.66
2023-01-01T08:24:50.297Z,72.95
2023-01-01T08:29:55.298Z,72.12
2023-01-01T08:35:00.249Z,71.80
2023-01-01T08:40:09.570Z,71.58
2023-01-01T08:45:16.049Z,71.06
2023-01-01T08:50:21.264Z,70.44
2023-01-01T08:55:29.481Z,70.43
2023-01-01T09:00:38.065Z,69.61
2023-01-01T09:05:45.815Z,69.79
2023-01-01T09:10:54.551Z,69.73
2023-01-01T09:16:00.250Z,70.01
2023-01-01T09:21:06.707Z,69.86
2023-01-01T09:26:18.630Z,69.58
2023-01-01T09:31:26.774Z,69.32
2023-01-01T09:36:33.340Z,68.71
2023-01-01T09:42:00.776Z,68.96
2023-01-01T09:47:08.832Z,69.45
2023-01-01T09:52:23.663Z,68.19
2023-01-01T09:57:34.593Z,67.97
2023-01-01T10:02:55.732Z,67.77
2023-01-01T10:08:09.469Z,67.65
2023-01-01T10:13:28.104Z,67.24
2023-01-01T10:18:38.464Z,66.96
2023-01-01T10:23:47.446Z,66.88
2023-01-01T10:29:01.993Z,66.63
2023-01-01T10:34:19.201Z,66.65
2023-01-01T10:39:25.619Z,67.01
2023-01-01T10:44:39.508Z,67.08
2023-01-01T10:49:57.614Z,67.53
2023-01-01T10:55:03.128Z,66.84
2023-01-01T11:00:25.206Z,67.21
2023-01-01T11:05:30.408Z,66.94
2023-01-01T11:10:35.707Z,66.76
2023-01-01T11:15:45.673Z,66.78
2023-01-01T11:20:55.828Z,66.25
2023-01-01T11:26:03.970Z,65.08
2023-01-01T11:31:17.892Z,65.79
2023-01-01T11:36:33.262Z,64.80
2023-01-01T11:41:47.133Z,65.29
2023-01-01T11:46:56.525Z,64.58
2023-01-01T11:52:02.267Z,64.13
2023-01-01T11:57:15.239Z,64.78
2023-01-01T12:02:35.792Z,64.10
2023-01-01T12:07:43.700Z,63.85
2023-01-01T12:12:54.635Z,64.13
2023-01-01T12:18:14.647Z,64.46
2023-01-01T12:23:21.952Z,64.20
2023-01-01T12:28:37.334Z,63.50
2023-01-01T12:34:08.557Z,63.69
2023-01-01T12:39:52.223Z,64.07
2023-01-01T12:45:17.199Z,64.23
2023-01-01T12:50:38.475Z,64.57
2023-01-01T12:56:08.190Z,64.83
2023-01-01T13:01:21.133Z,64.85
2023-01-01T13:06:33.992Z,65.12
2023-01-01T13:11:44.978Z,65.84
2023-01-01T13:16:54.849Z,65.35
2023-01-01T13:22:24.076Z,66.05
2023-01-01T13:28:00.714Z,66.38
2023-01-01T13:33:34.846Z,67.17
2023-01-01T13:38:53.869Z,66.95
2023-01-01T13:44:23.476Z,67.51
2023-01-01T13:49:36.506Z,67.25
2023-01-01T13:55:11.010Z,67.26
2023-01-01T14:00:28.284Z,67.66
2023-01-01T14:05:38.698Z,67.40
2023-01-01T14:10:44.760Z,68.09
2023-01-01T14:16:00.223Z,67.73
2023-01-01T14:21:06.142Z,67.65
2023-01-01T14:26:15.137Z,68.49
2023-01-01T14:31:26.229Z,69.18
2023-01-01T14:36:33.675Z,68.19
2023-01-01T14:41:41.133Z,68.96
2023-01-01T14:46:52.209Z,69.09
2023-01-01T14:52:04.654Z,69.53
2023-01-01T14:57:14.228Z,69.49
2023-01-01T15:02:26.881Z,70.47
2023-01-01T15:07:34.469Z,70.53
2023-01-01T15:12:45.325Z,70.54
2023-01-01T15:17:52.992Z,71.42
2023-01-01T15:23:10.560Z,70.66
2023-01-01T15:28:22.368Z,70.92
2023-01-01T15:33:30.187Z,71.94
2023-01-01T15:38:37.701Z,72.43
2023-01-01T15:43:42.688Z,72.25
2023-01-01T15:48:54.942Z,72.94
2023-01-01T15:54:02.935Z,72.61
2023-01-01T15:59:10.325Z,72.47
2023-01-01T16:04:28.339Z,73.45
2023-01-01T16:09:38.843Z,73.24
2023-01-01T16:14:44.590Z,74.09
2023-01-01T16:19:56.344Z,74.26
2023-01-01T16:25:03.725Z,73.74
2023-01-01T16:30:10.148Z,73.98
2023-01-01T16:35:19.131Z,73.76
2023-01-01T16:40:28.535Z,73.20
2023-01-01T16:45:38.353Z,73.15
2023-01-01T16:50:46.567Z,74.07
2023-01-01T16:55:56.531Z,74.25
2023-01-01T17:01:05.142Z,74.78
2023-01-01T17:06:16.156Z,75.14
2023-01-01T17:11:22.738Z,75.59
2023-01-01T17:16:34.383Z,75.76
2023-01-01T17:21:46.845Z,76.49
2023-01-01T17:26:54.676Z,76.57
2023-01-01T17:31:59.736Z,76.19
2023-01-01T17:37:07.673Z,76.17
2023-01-01T17:42:12.650Z,76.56
2023-01-01T17:47:17.600Z,76.57
2023-01-01T17:52:28.813Z,76.04
2023-01-01T17:57:33.904Z,76.53
2023-01-01T18:02:39.813Z,76.02
2023-01-01T18:07:47.463Z,75.93
2023-01-01T18:13:05.124Z,76.23
2023-01-01T18:18:10.352Z,75.59
2023-01-01T18:23:19.726Z,75.82
2023-01-01T18:28:24.644Z,75.86
2023-01-01T18:33:29.785Z,76.10
2023-01-01T18:38:40.988Z,75.52
2023-01-01T18:43:46.119Z,76.33
2023-01-01T18:48:55.494Z,77.43
2023-01-01T18:54:14.959Z,78.54
2023-01-01T18:59:24.217Z,79.12
2023-01-01T19:04:29.591Z,79.50
2023-01-01T19:09:39.060Z,79.08
2023-01-01T19:14:46.771Z,79.48
2023-01-01T19:19:53.142Z,79.08
2023-01-01T19:25:04.247Z,79.77
2023-01-01T19:30:25.117Z,80.44
2023-01-01T19:35:36.912Z,80.54
2023-01-01T19:40:45.256Z,80.78
2023-01-01T19:45:50.676Z,81.47
2023-01-01T19:50:56.266Z,81.72
2023-01-01T19:56:04.694Z,79.81
2023-01-01T20:01:29.425Z,78.07
2023-01-01T20:06:38.095Z,77.46
2023-01-01T20:11:50.594Z,80.99
2023-01-01T20:16:58.018Z,83.90
2023-01-01T20:22:15.265Z,82.33
2023-01-01T20:27:27.208Z,82.19
2023-01-01T20:32:32.623Z,82.55
2023-01-01T20:37:41.043Z,83.16
2023-01-01T20:42:49.025Z,83.71
2023-01-01T20:47:54.415Z,83.78
2023-01-01T20:53:01.923Z,83.87
2023-01-01T20:58:10.609Z,83.61
2023-01-01T21:03:17.104Z,83.77
2023-01-01T21:08:22.889Z,83.61
2023-01-01T21:13:31.242Z,83.32
2023-01-01T21:18:38.162Z,83.55
2023-01-01T21:23:44.124Z,84.24
2023-01-01T21:28:52.105Z,85.11
2023-01-01T21:33:57.139Z,85.73
2023-01-01T21:39:07.771Z,86.31
2023-01-01T21:44:18.379Z,87.62
2023-01-01T21:49:31.168Z,87.95
2023-01-01T21:54:39.635Z,88.49
2023-01-01T21:59:48.897Z,89.25
2023-01-01T22:04:54.578Z,89.85
2023-01-01T22:10:01.072Z,90.16
2023-01-01T22:15:31.444Z,91.54
2023-01-01T22:20:41.849Z,92.45
2023-01-01T22:25:46.976Z,92.71
2023-01-01T22:30:58.191Z,92.79
2023-01-01T22:36:04.649Z,93.43
2023-01-01T22:41:12.491Z,94.19
2023-01-01T22:46:36.742Z,94.40
2023-01-01T22:51:44.992Z,94.69
2023-01-01T22:56:49.998Z,94.62
2023-01-01T23:02:04.958Z,94.85
2023-01-01T23:07:15.958Z,94.17
2023-01-01T23:12:21.396Z,94.39
2023-01-01T23:17:29.223Z,94.70
2023-01-01T23:22:40.649Z,94.92
2023-01-01T23:27:47.348Z,95.82
2023-01-01T23:32:56.214Z,96.82
2023-01-01T23:38:03.234Z,97.05
2023-01-01T23:43:08.288Z,97.53
2023-01-01T23:48:16.651Z,97.09
2023-01-01T23:53:21.829Z,96.43
2023-01-01T23:58:28.247Z,96.51
